Time;durP1;ratioP1;P1;durP2;ratioP2;P2;SDS_P1;SDS_P2;PMS_P1;PMS_P2;Temp;Humidity;BMP_temperature;BMP_pressure;BME280_temperature;BME280_humidity;BME280_pressure;Samples;Min_cycle;Max_cycle;Signal;HPM_P1;HPM_P2
2021/07/12 00:00:33;;;;;;;;;;;20.10;76.60;;;;;;5110016;28;19896;-41
2021/07/12 00:03:00;;;;;;;;;;;20.00;76.90;;;;;;5084065;28;20345;-48
2021/07/12 00:05:26;;;;;;;;;;;20.00;76.90;;;;;;5098721;28;19951;-49
2021/07/12 00:07:52;;;;;;;;;;;20.10;76.70;;;;;;5099808;28;19904;-49
2021/07/12 00:10:18;;;;;;;;;;;20.00;76.80;;;;;;5098185;28;19908;-47
2021/07/12 00:12:45;;;;;;;;;;;20.00;77.10;;;;;;5098356;28;19904;-47
2021/07/12 00:15:11;;;;;;;;;;;20.10;77.10;;;;;;5097467;28;19911;-48
2021/07/12 00:17:37;;;;;;;;;;;20.10;76.90;;;;;;5097549;28;19904;-46
2021/07/12 00:20:05;;;;;;;;;;;20.10;77.20;;;;;;5097540;28;20002;-48
2021/07/12 00:22:30;;;;;;;;;;;20.00;77.40;;;;;;5099134;28;19911;-51
2021/07/12 00:24:56;;;;;;;;;;;20.10;77.90;;;;;;5097868;28;19904;-49
2021/07/12 00:27:21;;;;;;;;;;;20.00;78.00;;;;;;5097311;28;19916;-49
2021/07/12 00:29:47;;;;;;;;;;;20.00;78.50;;;;;;5097569;28;19911;-47
2021/07/12 00:32:12;;;;;;;;;;;19.90;78.20;;;;;;5097429;28;20271;-48
2021/07/12 00:34:38;;;;;;;;;;;19.90;78.10;;;;;;5096858;28;19915;-51
2021/07/12 00:37:03;;;;;;;;;;;19.90;78.40;;;;;;5079282;28;19911;-53
2021/07/12 00:39:29;;;;;;;;;;;19.90;78.40;;;;;;5097469;28;19907;-52
2021/07/12 00:41:54;;;;;;;;;;;19.90;78.40;;;;;;5078857;28;19973;-52
2021/07/12 00:44:20;;;;;;;;;;;19.90;78.50;;;;;;5096982;28;19911;-51
2021/07/12 00:46:45;;;;;;;;;;;19.80;79.20;;;;;;5096867;28;19917;-49
2021/07/12 00:49:11;;;;;;;;;;;19.80;78.90;;;;;;5096721;28;19904;-50
2021/07/12 00:51:37;;;;;;;;;;;19.80;79.20;;;;;;5096502;28;20367;-51
2021/07/12 00:54:03;;;;;;;;;;;19.80;79.20;;;;;;5097003;28;19904;-49
2021/07/12 00:56:29;;;;;;;;;;;19.80;79.00;;;;;;5097153;28;20347;-47
2021/07/12 00:58:54;;;;;;;;;;;19.90;79.40;;;;;;5096709;28;19911;-49
2021/07/12 01:01:20;;;;;;;;;;;20.10;78.50;;;;;;5096558;28;19912;-52
2021/07/12 01:03:46;;;;;;;;;;;19.90;79.10;;;;;;5078316;28;19904;-48
2021/07/12 01:06:11;;;;;;;;;;;19.90;79.40;;;;;;5096811;28;19956;-49
2021/07/12 01:08:37;;;;;;;;;;;19.80;79.50;;;;;;5077634;28;19910;-49
2021/07/12 01:11:21;;;;;;;;;;;19.70;79.90;;;;;;5096233;28;19915;-48
2021/07/12 01:13:46;;;;;;;;;;;19.80;79.70;;;;;;5096508;28;19925;-48
2021/07/12 01:16:24;;;;;;;;;;;19.70;79.80;;;;;;5096458;28;19995;-47
2021/07/12 01:18:52;;;;;;;;;;;19.70;80.10;;;;;;5096232;28;19931;-46
2021/07/12 01:21:39;;;;;;;;;;;19.70;79.70;;;;;;5096367;28;20326;-48
2021/07/12 01:24:08;;;;;;;;;;;19.70;79.50;;;;;;5096246;28;20030;-49
2021/07/12 01:26:36;;;;;;;;;;;19.60;79.70;;;;;;5097237;28;19953;-47
2021/07/12 01:29:25;;;;;;;;;;;19.60;80.50;;;;;;5096148;28;19961;-47
2021/07/12 01:31:50;;;;;;;;;;;19.40;81.30;;;;;;5049054;28;19908;-48
2021/07/12 01:34:16;;;;;;;;;;;19.30;81.90;;;;;;5095753;28;19919;-47
2021/07/12 01:36:51;;;;;;;;;;;19.30;82.20;;;;;;5095851;28;20443;-48
2021/07/12 01:39:27;;;;;;;;;;;19.20;82.70;;;;;;5095961;28;19911;-48
2021/07/12 01:41:53;;;;;;;;;;;19.10;83.10;;;;;;5096079;28;19953;-47
2021/07/12 01:44:37;;;;;;;;;;;19.10;83.00;;;;;;5095684;28;20353;-49
2021/07/12 01:47:07;;;;;;;;;;;19.10;83.10;;;;;;5095741;28;20287;-47
2021/07/12 01:49:33;;;;;;;;;;;19.00;83.40;;;;;;5096040;28;19934;-48
2021/07/12 01:52:08;;;;;;;;;;;19.00;83.80;;;;;;5095631;28;19912;-50
2021/07/12 01:54:38;;;;;;;;;;;19.00;84.00;;;;;;5095677;28;19904;-47
2021/07/12 01:57:06;;;;;;;;;;;18.80;84.40;;;;;;5095916;28;20344;-47
2021/07/12 01:59:32;;;;;;;;;;;18.80;84.60;;;;;;5095771;28;19904;-51
2021/07/12 02:01:58;;;;;;;;;;;18.80;84.40;;;;;;5095647;28;19994;-47
2021/07/12 02:04:25;;;;;;;;;;;18.80;84.00;;;;;;5095411;28;19957;-48
2021/07/12 02:06:52;;;;;;;;;;;18.80;84.10;;;;;;5095730;28;20390;-48
2021/07/12 02:09:19;;;;;;;;;;;18.80;84.30;;;;;;5077200;28;19908;-49
2021/07/12 02:11:45;;;;;;;;;;;18.80;84.60;;;;;;5077202;28;19991;-48
2021/07/12 02:14:12;;;;;;;;;;;18.70;84.80;;;;;;5095328;28;19904;-47
2021/07/12 02:16:38;;;;;;;;;;;18.70;84.80;;;;;;5095314;28;20374;-47
2021/07/12 02:19:05;;;;;;;;;;;18.60;85.00;;;;;;5095522;28;19904;-47
2021/07/12 02:21:33;;;;;;;;;;;18.70;84.90;;;;;;5076296;28;19904;-48
2021/07/12 02:24:00;;;;;;;;;;;18.60;84.90;;;;;;5095388;28;20067;-46
2021/07/12 02:26:27;;;;;;;;;;;18.60;84.90;;;;;;5095318;28;19904;-48
2021/07/12 02:28:53;;;;;;;;;;;18.50;85.30;;;;;;5095115;28;20390;-47
2021/07/12 02:31:19;;;;;;;;;;;18.50;85.20;;;;;;5095277;28;19951;-48
2021/07/12 02:33:45;;;;;;;;;;;18.40;85.40;;;;;;5094976;28;20283;-47
2021/07/12 02:36:11;;;;;;;;;;;18.40;85.70;;;;;;5074966;28;20007;-47
2021/07/12 02:38:38;;;;;;;;;;;18.30;86.00;;;;;;5074560;28;19908;-46
2021/07/12 02:41:03;;;;;;;;;;;18.30;86.10;;;;;;5074488;28;19905;-49
2021/07/12 02:43:29;;;;;;;;;;;18.30;86.30;;;;;;5074458;28;20363;-46
2021/07/12 02:45:55;;;;;;;;;;;18.20;86.60;;;;;;5074434;28;19973;-46
2021/07/12 02:48:21;;;;;;;;;;;18.20;86.70;;;;;;5074605;28;19908;-46
2021/07/12 02:50:49;;;;;;;;;;;18.20;86.70;;;;;;5074512;28;19964;-46
2021/07/12 02:53:17;;;;;;;;;;;18.20;86.80;;;;;;5074286;28;19904;-46
2021/07/12 02:55:43;;;;;;;;;;;18.10;86.90;;;;;;5074331;28;19904;-47
2021/07/12 02:58:08;;;;;;;;;;;18.10;87.00;;;;;;5074469;28;19904;-47
2021/07/12 03:00:34;;;;;;;;;;;18.10;86.90;;;;;;5072943;28;20013;-51
2021/07/12 03:02:59;;;;;;;;;;;18.10;86.90;;;;;;5074156;28;19915;-46
2021/07/12 03:05:25;;;;;;;;;;;18.10;87.00;;;;;;5072822;28;19908;-47
2021/07/12 03:07:56;;;;;;;;;;;18.10;87.10;;;;;;5074372;28;20310;-49
2021/07/12 03:10:27;;;;;;;;;;;18.10;87.20;;;;;;5074047;28;19910;-48
2021/07/12 03:13:19;;;;;;;;;;;18.00;87.30;;;;;;5074385;28;19904;-49
2021/07/12 03:15:45;;;;;;;;;;;18.00;87.50;;;;;;5071260;28;19905;-48
2021/07/12 03:18:17;;;;;;;;;;;17.90;87.40;;;;;;5072949;28;19905;-47
2021/07/12 03:20:44;;;;;;;;;;;17.90;87.50;;;;;;5073872;28;19940;-48
2021/07/12 03:23:12;;;;;;;;;;;17.90;87.70;;;;;;5074010;28;19915;-52
2021/07/12 03:25:41;;;;;;;;;;;18.00;87.40;;;;;;5072657;28;19904;-47
2021/07/12 03:28:07;;;;;;;;;;;17.90;87.50;;;;;;5073936;28;19904;-47
2021/07/12 03:30:34;;;;;;;;;;;17.80;87.60;;;;;;5073808;28;19935;-46
2021/07/12 03:33:00;;;;;;;;;;;17.90;87.90;;;;;;5073683;28;20318;-48
2021/07/12 03:35:30;;;;;;;;;;;17.80;87.80;;;;;;5087587;28;19991;-47
2021/07/12 03:37:56;;;;;;;;;;;17.80;87.70;;;;;;5094523;28;19904;-47
2021/07/12 03:40:22;;;;;;;;;;;17.80;88.00;;;;;;5093859;28;19904;-48
2021/07/12 03:42:47;;;;;;;;;;;17.80;87.70;;;;;;5093815;28;19933;-50
2021/07/12 03:45:13;;;;;;;;;;;17.70;87.90;;;;;;5094090;28;19949;-47
2021/07/12 03:47:39;;;;;;;;;;;17.80;88.30;;;;;;5094177;28;19910;-51
2021/07/12 03:50:11;;;;;;;;;;;17.80;88.10;;;;;;5076024;28;19904;-47
2021/07/12 03:52:40;;;;;;;;;;;17.70;88.40;;;;;;5094060;28;19908;-52
2021/07/12 03:55:06;;;;;;;;;;;17.70;88.40;;;;;;5093772;28;19911;-48
2021/07/12 03:57:32;;;;;;;;;;;17.70;88.10;;;;;;5093751;28;19912;-47
2021/07/12 03:59:57;;;;;;;;;;;17.60;88.40;;;;;;5093759;28;19904;-48
2021/07/12 04:02:23;;;;;;;;;;;17.60;88.40;;;;;;5093706;28;19910;-48
2021/07/12 04:04:48;;;;;;;;;;;17.70;88.40;;;;;;5093722;28;20348;-45
2021/07/12 04:07:14;;;;;;;;;;;17.80;88.30;;;;;;5093721;28;19904;-46
2021/07/12 04:09:39;;;;;;;;;;;17.80;88.20;;;;;;5093735;28;20276;-48
2021/07/12 04:12:05;;;;;;;;;;;17.80;88.00;;;;;;5093871;28;19915;-48
2021/07/12 04:14:30;;;;;;;;;;;17.80;88.00;;;;;;5093951;28;20279;-48
2021/07/12 04:16:56;;;;;;;;;;;17.90;87.60;;;;;;5093639;28;19904;-47
2021/07/12 04:19:21;;;;;;;;;;;17.90;87.50;;;;;;5076359;28;19904;-47
2021/07/12 04:21:47;;;;;;;;;;;17.90;87.50;;;;;;5093495;28;20375;-48
2021/07/12 04:24:12;;;;;;;;;;;18.00;87.40;;;;;;5093585;28;19904;-47
2021/07/12 04:26:38;;;;;;;;;;;18.00;87.20;;;;;;5075417;28;19954;-46
2021/07/12 04:29:06;;;;;;;;;;;18.00;87.20;;;;;;5093601;28;19904;-49
2021/07/12 04:31:32;;;;;;;;;;;18.00;87.30;;;;;;5093959;28;19951;-47
2021/07/12 04:33:57;;;;;;;;;;;18.00;87.40;;;;;;5093416;28;19904;-50
2021/07/12 04:36:24;;;;;;;;;;;18.00;87.10;;;;;;5093517;28;19907;-47
2021/07/12 04:38:50;;;;;;;;;;;18.00;87.20;;;;;;5093668;28;19908;-47
2021/07/12 04:41:16;;;;;;;;;;;18.10;87.10;;;;;;5093620;28;20404;-49
2021/07/12 04:43:41;;;;;;;;;;;18.00;87.10;;;;;;5093925;28;19927;-47
2021/07/12 04:46:07;;;;;;;;;;;18.10;86.70;;;;;;5097308;28;19956;-47
2021/07/12 04:48:32;;;;;;;;;;;18.10;86.60;;;;;;5097204;28;20335;-46
2021/07/12 04:50:58;;;;;;;;;;;18.10;86.40;;;;;;5096803;28;19915;-47
2021/07/12 04:53:23;;;;;;;;;;;18.20;86.30;;;;;;5097149;28;19904;-47
2021/07/12 04:55:49;;;;;;;;;;;18.10;86.50;;;;;;5097111;28;20358;-47
2021/07/12 04:58:14;;;;;;;;;;;18.20;86.30;;;;;;5078660;28;19904;-46
2021/07/12 05:00:40;;;;;;;;;;;18.30;85.80;;;;;;5096780;28;19908;-47
2021/07/12 05:03:06;;;;;;;;;;;18.30;85.50;;;;;;5096783;28;20343;-48
2021/07/12 05:05:31;;;;;;;;;;;18.50;85.10;;;;;;5096881;28;19954;-48
2021/07/12 05:07:57;;;;;;;;;;;18.50;84.70;;;;;;5096869;28;20324;-48
2021/07/12 05:10:22;;;;;;;;;;;18.80;83.90;;;;;;5096513;28;20006;-47
2021/07/12 05:12:48;;;;;;;;;;;18.70;83.30;;;;;;5096749;28;19999;-47
2021/07/12 05:15:14;;;;;;;;;;;18.80;83.00;;;;;;5096376;28;19905;-47
2021/07/12 05:17:41;;;;;;;;;;;18.70;82.90;;;;;;5096610;28;19908;-47
2021/07/12 05:20:06;;;;;;;;;;;18.80;82.60;;;;;;5096351;28;19960;-49
2021/07/12 05:22:32;;;;;;;;;;;18.80;82.60;;;;;;5096593;28;20351;-55
2021/07/12 05:24:57;;;;;;;;;;;18.90;82.40;;;;;;5096509;28;20264;-47
2021/07/12 05:27:23;;;;;;;;;;;18.60;83.00;;;;;;5096417;28;19904;-47
2021/07/12 05:29:49;;;;;;;;;;;18.70;83.10;;;;;;5096049;28;20264;-46
2021/07/12 05:32:14;;;;;;;;;;;18.90;82.20;;;;;;5095807;28;19976;-47
2021/07/12 05:34:40;;;;;;;;;;;19.20;80.80;;;;;;5095929;28;19927;-48
2021/07/12 05:37:05;;;;;;;;;;;19.40;79.90;;;;;;5077868;28;19904;-47
2021/07/12 05:39:31;;;;;;;;;;;19.30;80.30;;;;;;5096184;28;19904;-48
2021/07/12 05:41:56;;;;;;;;;;;19.30;80.60;;;;;;5077782;28;20418;-48
2021/07/12 05:44:22;;;;;;;;;;;19.30;79.40;;;;;;5096055;28;19954;-47
2021/07/12 05:46:47;;;;;;;;;;;19.20;79.60;;;;;;5095820;28;19910;-46
2021/07/12 05:49:13;;;;;;;;;;;19.30;78.80;;;;;;5095353;28;19904;-46
2021/07/12 05:51:38;;;;;;;;;;;19.40;78.60;;;;;;5095172;28;19908;-46
2021/07/12 05:54:04;;;;;;;;;;;19.50;78.60;;;;;;5095547;28;20244;-48
2021/07/12 05:56:29;;;;;;;;;;;19.30;79.10;;;;;;5095267;28;19908;-50
2021/07/12 05:58:55;;;;;;;;;;;19.60;79.00;;;;;;5095622;28;19904;-49
2021/07/12 06:01:20;;;;;;;;;;;19.80;78.60;;;;;;5095428;28;19973;-49
2021/07/12 06:03:46;;;;;;;;;;;19.90;77.30;;;;;;5095563;28;20344;-49
2021/07/12 06:06:12;;;;;;;;;;;20.10;76.80;;;;;;5095069;28;19904;-48
2021/07/12 06:08:38;;;;;;;;;;;20.30;76.10;;;;;;5076718;28;20407;-49
2021/07/12 06:11:04;;;;;;;;;;;20.40;76.00;;;;;;5094342;28;20003;-51
2021/07/12 06:13:30;;;;;;;;;;;20.40;75.40;;;;;;5094665;28;20404;-47
2021/07/12 06:15:55;;;;;;;;;;;20.40;75.40;;;;;;5094545;28;19904;-48
2021/07/12 06:18:21;;;;;;;;;;;20.40;75.50;;;;;;5094406;28;20370;-47
2021/07/12 06:20:46;;;;;;;;;;;20.50;74.30;;;;;;5094568;28;19944;-52
2021/07/12 06:23:12;;;;;;;;;;;20.60;73.80;;;;;;5086243;28;19911;-37
2021/07/12 06:25:37;;;;;;;;;;;20.80;73.80;;;;;;5094401;28;20343;-37
2021/07/12 06:28:04;;;;;;;;;;;21.10;72.50;;;;;;5094491;28;20268;-37
2021/07/12 06:30:29;;;;;;;;;;;21.00;73.60;;;;;;5094494;28;19964;-41
2021/07/12 06:32:55;;;;;;;;;;;21.00;73.20;;;;;;5094294;28;20335;-38
2021/07/12 06:35:20;;;;;;;;;;;20.80;74.00;;;;;;5094013;28;20002;-43
2021/07/12 06:37:46;;;;;;;;;;;20.90;73.40;;;;;;5094410;28;19903;-42
2021/07/12 06:40:12;;;;;;;;;;;20.90;73.50;;;;;;5075643;28;19908;-36
2021/07/12 06:42:37;;;;;;;;;;;21.10;73.00;;;;;;5094209;28;20370;-37
2021/07/12 06:45:05;;;;;;;;;;;21.30;72.40;;;;;;5094284;28;19911;-37
2021/07/12 06:47:30;;;;;;;;;;;21.30;71.70;;;;;;5075780;28;19908;-37
2021/07/12 06:49:56;;;;;;;;;;;21.00;73.10;;;;;;5093867;28;19979;-37
2021/07/12 06:52:21;;;;;;;;;;;21.40;72.00;;;;;;5094555;28;19908;-37
2021/07/12 06:54:47;;;;;;;;;;;21.80;70.20;;;;;;5094257;28;19904;-37
2021/07/12 06:57:13;;;;;;;;;;;21.80;69.70;;;;;;5094561;28;19904;-38
2021/07/12 06:59:39;;;;;;;;;;;22.00;69.40;;;;;;5094105;28;19908;-37
2021/07/12 07:02:04;;;;;;;;;;;21.40;72.00;;;;;;5093999;28;20317;-37
2021/07/12 07:04:30;;;;;;;;;;;21.70;70.90;;;;;;5094669;28;19908;-37
2021/07/12 07:06:55;;;;;;;;;;;21.90;70.20;;;;;;5093842;28;19904;-42
2021/07/12 07:09:21;;;;;;;;;;;21.80;69.50;;;;;;5093971;28;19904;-37
2021/07/12 07:11:46;;;;;;;;;;;22.10;68.70;;;;;;5093869;28;19937;-38
2021/07/12 07:14:12;;;;;;;;;;;21.90;68.30;;;;;;5093895;28;19911;-37
2021/07/12 07:16:37;;;;;;;;;;;21.70;69.40;;;;;;5075691;28;19951;-36
2021/07/12 07:19:03;;;;;;;;;;;21.80;69.20;;;;;;5094101;28;19906;-37
2021/07/12 07:21:28;;;;;;;;;;;21.80;68.40;;;;;;5093490;28;20280;-36
2021/07/12 07:23:54;;;;;;;;;;;21.60;69.40;;;;;;5075492;28;19904;-36
2021/07/12 07:26:20;;;;;;;;;;;21.80;68.50;;;;;;5093722;28;20052;-37
2021/07/12 07:28:45;;;;;;;;;;;21.90;68.20;;;;;;5093871;28;20000;-38
2021/07/12 07:31:11;;;;;;;;;;;21.70;68.50;;;;;;5093824;28;19908;-37
2021/07/12 07:33:36;;;;;;;;;;;22.20;66.80;;;;;;5075264;28;20359;-38
2021/07/12 07:36:02;;;;;;;;;;;22.30;65.90;;;;;;5075344;28;20340;-38
2021/07/12 07:38:28;;;;;;;;;;;22.40;66.10;;;;;;5093484;28;19904;-38
2021/07/12 07:40:53;;;;;;;;;;;22.80;63.90;;;;;;5093343;28;19904;-36
2021/07/12 07:43:19;;;;;;;;;;;23.50;61.30;;;;;;5093310;28;19951;-37
2021/07/12 07:45:45;;;;;;;;;;;23.70;60.90;;;;;;5093808;28;19922;-37
2021/07/12 07:48:10;;;;;;;;;;;24.50;59.10;;;;;;5093434;28;20279;-37
2021/07/12 07:50:39;;;;;;;;;;;24.80;58.30;;;;;;5075134;28;19950;-38
2021/07/12 07:53:06;;;;;;;;;;;24.80;58.10;;;;;;5093484;28;19994;-38
2021/07/12 07:55:31;;;;;;;;;;;25.10;54.40;;;;;;5075113;28;19905;-38
2021/07/12 07:57:57;;;;;;;;;;;24.80;53.90;;;;;;5075413;28;20271;-37
2021/07/12 08:00:24;;;;;;;;;;;24.30;55.70;;;;;;5093708;28;19904;-37
2021/07/12 08:02:50;;;;;;;;;;;24.30;57.00;;;;;;5093767;28;20311;-37
2021/07/12 08:05:16;;;;;;;;;;;24.70;55.80;;;;;;5093752;28;19904;-38
2021/07/12 08:07:41;;;;;;;;;;;24.90;54.10;;;;;;5093183;28;20547;-36
2021/07/12 08:10:08;;;;;;;;;;;25.30;52.90;;;;;;5075119;28;19904;-37
2021/07/12 08:12:34;;;;;;;;;;;25.20;53.40;;;;;;5093050;28;19954;-37
2021/07/12 08:14:59;;;;;;;;;;;25.10;52.80;;;;;;5092968;28;19908;-38
2021/07/12 08:17:25;;;;;;;;;;;25.30;52.60;;;;;;5093031;28;19904;-37
2021/07/12 08:19:50;;;;;;;;;;;25.00;53.80;;;;;;5095946;28;19910;-37
2021/07/12 08:22:16;;;;;;;;;;;25.20;52.40;;;;;;5098286;28;19912;-37
2021/07/12 08:24:41;;;;;;;;;;;25.30;51.00;;;;;;5098405;28;20304;-37
2021/07/12 08:27:07;;;;;;;;;;;24.60;53.50;;;;;;5097865;28;20225;-38
2021/07/12 08:29:33;;;;;;;;;;;25.10;52.10;;;;;;5096997;28;19904;-38
2021/07/12 08:31:59;;;;;;;;;;;25.30;52.00;;;;;;5096614;28;20414;-38
2021/07/12 08:34:24;;;;;;;;;;;25.50;51.50;;;;;;5096087;28;19912;-37
2021/07/12 08:36:50;;;;;;;;;;;26.20;50.20;;;;;;5096373;28;19908;-37
2021/07/12 08:39:17;;;;;;;;;;;25.50;51.40;;;;;;5096492;28;19904;-37
2021/07/12 08:41:46;;;;;;;;;;;25.70;51.30;;;;;;5078100;28;19904;-38
2021/07/12 08:44:12;;;;;;;;;;;25.90;50.20;;;;;;5096570;28;20369;-37
2021/07/12 08:46:38;;;;;;;;;;;26.50;49.20;;;;;;5078120;28;19904;-37
2021/07/12 08:49:04;;;;;;;;;;;26.00;49.40;;;;;;5096439;28;19911;-37
2021/07/12 08:51:29;;;;;;;;;;;26.00;50.70;;;;;;5097190;28;20273;-36
2021/07/12 08:53:55;;;;;;;;;;;26.00;51.30;;;;;;5096568;28;19995;-39
2021/07/12 08:56:21;;;;;;;;;;;26.20;49.70;;;;;;5077873;28;19904;-37
2021/07/12 08:58:47;;;;;;;;;;;26.10;49.50;;;;;;5096291;28;19904;-36
2021/07/12 09:01:13;;;;;;;;;;;26.30;48.50;;;;;;5096528;28;19926;-37
2021/07/12 09:03:39;;;;;;;;;;;26.30;48.60;;;;;;5096054;28;19949;-37
2021/07/12 09:06:07;;;;;;;;;;;27.00;46.50;;;;;;5096647;28;19904;-42
2021/07/12 09:08:47;;;;;;;;;;;27.70;45.30;;;;;;5096538;28;19947;-38
2021/07/12 09:11:12;;;;;;;;;;;27.70;45.30;;;;;;5078132;28;20045;-38
2021/07/12 09:13:46;;;;;;;;;;;28.10;43.20;;;;;;5095668;28;20358;-38
2021/07/12 09:16:29;;;;;;;;;;;26.50;45.80;;;;;;5096075;28;19904;-37
2021/07/12 09:19:09;;;;;;;;;;;25.70;48.90;;;;;;5095873;28;19945;-38
2021/07/12 09:21:40;;;;;;;;;;;25.80;49.90;;;;;;5077580;28;20007;-38
2021/07/12 09:24:18;;;;;;;;;;;25.90;50.00;;;;;;5077770;28;19939;-38
2021/07/12 09:26:45;;;;;;;;;;;26.80;47.50;;;;;;5095647;28;19999;-38
2021/07/12 09:29:18;;;;;;;;;;;27.10;45.30;;;;;;5077060;28;19958;-39
2021/07/12 09:31:44;;;;;;;;;;;26.80;46.20;;;;;;5095685;28;20082;-39
2021/07/12 09:34:09;;;;;;;;;;;27.60;43.60;;;;;;5095366;28;19955;-37
2021/07/12 09:36:35;;;;;;;;;;;26.80;44.90;;;;;;5095107;28;20380;-39
2021/07/12 09:39:19;;;;;;;;;;;27.30;44.20;;;;;;5095338;28;19929;-38
2021/07/12 09:41:48;;;;;;;;;;;27.00;45.10;;;;;;5095801;28;20279;-39
2021/07/12 09:44:16;;;;;;;;;;;27.00;46.10;;;;;;5095803;28;19938;-37
2021/07/12 09:46:42;;;;;;;;;;;27.30;45.70;;;;;;5076890;28;19904;-38
2021/07/12 09:49:11;;;;;;;;;;;27.30;44.90;;;;;;5094919;28;19904;-38
2021/07/12 09:51:38;;;;;;;;;;;27.30;44.70;;;;;;5094595;28;19992;-37
2021/07/12 09:54:19;;;;;;;;;;;28.00;44.50;;;;;;5076349;28;19911;-38
2021/07/12 09:56:48;;;;;;;;;;;27.30;45.20;;;;;;5094671;28;19904;-36
2021/07/12 09:59:14;;;;;;;;;;;27.70;44.80;;;;;;5094793;28;19908;-37
2021/07/12 10:01:47;;;;;;;;;;;28.60;42.70;;;;;;5094662;28;19931;-37
2021/07/12 10:04:13;;;;;;;;;;;28.20;43.20;;;;;;5094683;28;20327;-39
2021/07/12 10:06:39;;;;;;;;;;;28.60;43.50;;;;;;5076403;28;19911;-37
2021/07/12 10:09:06;;;;;;;;;;;29.10;42.10;;;;;;5095338;28;19904;-38
2021/07/12 10:11:31;;;;;;;;;;;29.40;41.30;;;;;;5094678;28;19915;-37
2021/07/12 10:13:57;;;;;;;;;;;29.30;41.80;;;;;;5094304;28;19998;-39
2021/07/12 10:16:23;;;;;;;;;;;30.00;40.40;;;;;;5094847;28;19911;-37
2021/07/12 10:18:48;;;;;;;;;;;29.00;42.70;;;;;;5094458;28;20014;-41
2021/07/12 10:21:14;;;;;;;;;;;28.70;43.50;;;;;;5076091;28;19927;-37
2021/07/12 10:23:40;;;;;;;;;;;28.40;42.70;;;;;;5094584;28;19995;-37
2021/07/12 10:26:05;;;;;;;;;;;28.90;41.80;;;;;;5095455;28;20426;-37
2021/07/12 10:28:39;;;;;;;;;;;29.00;41.20;;;;;;5095364;28;19907;-38
2021/07/12 10:31:22;;;;;;;;;;;28.40;42.30;;;;;;5094552;28;20323;-37
2021/07/12 10:33:48;;;;;;;;;;;28.80;41.80;;;;;;5094337;28;19908;-38
2021/07/12 10:36:32;;;;;;;;;;;27.70;44.00;;;;;;5094429;28;19914;-38
2021/07/12 10:38:57;;;;;;;;;;;28.50;42.40;;;;;;5094175;28;20359;-37
2021/07/12 10:41:26;;;;;;;;;;;29.20;41.80;;;;;;5094144;28;20007;-37
2021/07/12 10:43:55;;;;;;;;;;;29.40;39.90;;;;;;5076039;28;20375;-38
2021/07/12 10:46:23;;;;;;;;;;;29.20;39.80;;;;;;5094126;28;19908;-37
2021/07/12 10:48:50;;;;;;;;;;;30.10;38.30;;;;;;5094156;28;19904;-37
2021/07/12 10:51:17;;;;;;;;;;;30.60;35.80;;;;;;5094603;28;19948;-37
2021/07/12 10:53:43;;;;;;;;;;;30.70;36.00;;;;;;5077038;28;19953;-37
2021/07/12 10:56:11;;;;;;;;;;;30.60;35.80;;;;;;5076148;28;19911;-37
2021/07/12 10:58:39;;;;;;;;;;;30.30;36.50;;;;;;5075871;28;19904;-36
2021/07/12 11:01:06;;;;;;;;;;;29.10;39.20;;;;;;5075817;28;20313;-38
2021/07/12 11:03:35;;;;;;;;;;;30.90;36.40;;;;;;5093940;28;19998;-37
2021/07/12 11:06:04;;;;;;;;;;;30.20;38.10;;;;;;5093734;28;19904;-37
2021/07/12 11:08:49;;;;;;;;;;;29.80;37.00;;;;;;5075879;28;20373;-37
2021/07/12 11:11:18;;;;;;;;;;;29.80;37.40;;;;;;5094054;28;20005;-37
2021/07/12 11:13:57;;;;;;;;;;;29.90;37.30;;;;;;5093802;28;19904;-36
2021/07/12 11:16:28;;;;;;;;;;;29.70;38.00;;;;;;5072299;28;19904;-37
2021/07/12 11:18:54;;;;;;;;;;;28.80;39.50;;;;;;5075237;28;19911;-37
2021/07/12 11:21:29;;;;;;;;;;;30.30;37.10;;;;;;5093513;28;19907;-38
2021/07/12 11:23:56;;;;;;;;;;;30.80;36.40;;;;;;5093663;28;19930;-37
2021/07/12 11:26:23;;;;;;;;;;;30.10;38.00;;;;;;5075798;28;19973;-37
2021/07/12 11:28:49;;;;;;;;;;;28.70;40.20;;;;;;5093678;28;19904;-37
2021/07/12 11:31:33;;;;;;;;;;;28.80;40.20;;;;;;5075360;28;19926;-37
2021/07/12 11:33:59;;;;;;;;;;;29.80;38.10;;;;;;5075360;28;19904;-37
2021/07/12 11:36:25;;;;;;;;;;;29.50;38.00;;;;;;5076290;28;19995;-38
2021/07/12 11:38:50;;;;;;;;;;;29.30;38.20;;;;;;5094082;28;19908;-37
2021/07/12 11:41:23;;;;;;;;;;;29.10;38.10;;;;;;5093619;28;20003;-38
2021/07/12 11:44:08;;;;;;;;;;;29.10;38.10;;;;;;5075574;28;19904;-38
2021/07/12 11:46:36;;;;;;;;;;;28.70;39.00;;;;;;5074007;28;19904;-36
2021/07/12 11:49:05;;;;;;;;;;;28.50;40.70;;;;;;5075364;28;19904;-37
2021/07/12 11:51:30;;;;;;;;;;;28.00;41.30;;;;;;5093362;28;19912;-37
2021/07/12 11:53:56;;;;;;;;;;;28.40;41.70;;;;;;5079628;28;20387;-37
2021/07/12 11:56:21;;;;;;;;;;;29.40;39.30;;;;;;5098160;28;19999;-37
2021/07/12 11:58:57;;;;;;;;;;;29.30;38.10;;;;;;5079203;28;20057;-37
2021/07/12 12:01:22;;;;;;;;;;;29.20;38.70;;;;;;5078413;28;19904;-37
2021/07/12 12:03:58;;;;;;;;;;;28.80;40.50;;;;;;5097331;28;19911;-41
2021/07/12 12:06:24;;;;;;;;;;;29.10;40.40;;;;;;5097207;28;19949;-39
2021/07/12 12:09:03;;;;;;;;;;;29.70;39.00;;;;;;5097117;28;19904;-37
2021/07/12 12:11:29;;;;;;;;;;;28.80;39.40;;;;;;5096617;28;19908;-37
2021/07/12 12:13:55;;;;;;;;;;;28.30;41.30;;;;;;5096950;28;19911;-37
2021/07/12 12:16:25;;;;;;;;;;;27.80;42.30;;;;;;5063255;28;19904;-37
2021/07/12 12:18:52;;;;;;;;;;;27.50;42.10;;;;;;5097115;28;19912;-42
2021/07/12 12:21:18;;;;;;;;;;;27.30;42.80;;;;;;5078787;28;20347;-37
2021/07/12 12:23:44;;;;;;;;;;;27.30;43.90;;;;;;5096866;28;19904;-38
2021/07/12 12:26:13;;;;;;;;;;;27.30;43.70;;;;;;5096596;28;20352;-38
2021/07/12 12:28:44;;;;;;;;;;;27.30;44.00;;;;;;5097127;28;19950;-38
2021/07/12 12:31:10;;;;;;;;;;;27.70;42.00;;;;;;5079088;28;19951;-38
2021/07/12 12:33:39;;;;;;;;;;;27.60;41.20;;;;;;5097023;28;19963;-37
2021/07/12 12:36:12;;;;;;;;;;;27.40;41.60;;;;;;5096541;28;19923;-37
2021/07/12 12:38:49;;;;;;;;;;;27.80;41.60;;;;;;5097634;28;19939;-37
2021/07/12 12:41:17;;;;;;;;;;;28.20;42.10;;;;;;5096246;28;19908;-37
2021/07/12 12:43:57;;;;;;;;;;;27.80;43.60;;;;;;5096973;28;20275;-38
2021/07/12 12:46:23;;;;;;;;;;;28.00;43.20;;;;;;5096413;28;19912;-38
2021/07/12 12:48:49;;;;;;;;;;;28.00;43.80;;;;;;5097250;28;20237;-38
2021/07/12 12:51:22;;;;;;;;;;;27.80;43.90;;;;;;5079563;28;20018;-38
2021/07/12 12:53:57;;;;;;;;;;;28.00;42.20;;;;;;5096358;28;19988;-37
2021/07/12 12:56:23;;;;;;;;;;;28.20;41.90;;;;;;5095954;28;19911;-38
2021/07/12 12:58:55;;;;;;;;;;;28.30;41.40;;;;;;5095686;28;19904;-37
2021/07/12 13:01:27;;;;;;;;;;;27.90;42.10;;;;;;5096096;28;20013;-37
2021/07/12 13:04:02;;;;;;;;;;;27.60;43.30;;;;;;5095696;28;20378;-38
2021/07/12 13:06:35;;;;;;;;;;;27.40;44.00;;;;;;5096240;28;19905;-44
2021/07/12 13:09:01;;;;;;;;;;;27.50;43.90;;;;;;5095849;28;19903;-38
2021/07/12 13:11:26;;;;;;;;;;;27.50;44.70;;;;;;5095791;28;19915;-39
2021/07/12 13:13:55;;;;;;;;;;;28.10;43.30;;;;;;5096093;28;20359;-54
2021/07/12 13:16:21;;;;;;;;;;;28.30;42.60;;;;;;5077555;28;20279;-37
2021/07/12 13:18:49;;;;;;;;;;;29.00;41.50;;;;;;5096193;28;19930;-37
2021/07/12 13:21:15;;;;;;;;;;;28.90;42.10;;;;;;5095884;28;19939;-37
2021/07/12 13:23:45;;;;;;;;;;;28.60;41.90;;;;;;5095893;28;19904;-37
2021/07/12 13:26:12;;;;;;;;;;;28.70;42.40;;;;;;5095837;28;19908;-37
2021/07/12 13:28:38;;;;;;;;;;;28.30;41.90;;;;;;5095248;28;19911;-37
2021/07/12 13:31:04;;;;;;;;;;;28.30;41.70;;;;;;5095571;28;19908;-36
2021/07/12 13:33:30;;;;;;;;;;;28.10;42.80;;;;;;5095503;28;20275;-37
2021/07/12 13:35:59;;;;;;;;;;;27.30;44.20;;;;;;5095072;28;20445;-37
2021/07/12 13:38:25;;;;;;;;;;;27.50;42.80;;;;;;5060770;28;19911;-37
2021/07/12 13:40:50;;;;;;;;;;;27.70;43.00;;;;;;5095424;28;19904;-37
2021/07/12 13:43:16;;;;;;;;;;;27.60;43.30;;;;;;5095152;28;19904;-38
2021/07/12 13:45:43;;;;;;;;;;;27.90;42.60;;;;;;5076640;28;19904;-41
2021/07/12 13:48:10;;;;;;;;;;;28.00;41.70;;;;;;5095040;28;19908;-38
2021/07/12 13:50:36;;;;;;;;;;;28.20;41.40;;;;;;5077042;28;19931;-38
2021/07/12 13:53:03;;;;;;;;;;;28.10;42.30;;;;;;5094838;28;20020;-38
2021/07/12 13:55:30;;;;;;;;;;;27.80;42.90;;;;;;5094316;28;19927;-38
2021/07/12 13:57:57;;;;;;;;;;;27.80;44.00;;;;;;5094310;28;19915;-38
2021/07/12 14:00:24;;;;;;;;;;;27.60;42.50;;;;;;5094910;28;19939;-36
2021/07/12 14:02:49;;;;;;;;;;;27.40;43.40;;;;;;5094729;28;19968;-37
2021/07/12 14:05:16;;;;;;;;;;;27.50;43.90;;;;;;5095328;28;19942;-37
2021/07/12 14:07:41;;;;;;;;;;;27.30;44.50;;;;;;5094889;28;19904;-37
2021/07/12 14:10:11;;;;;;;;;;;27.10;45.30;;;;;;5076723;28;20264;-37
2021/07/12 14:12:37;;;;;;;;;;;27.30;45.40;;;;;;5094668;28;20002;-36
2021/07/12 14:15:04;;;;;;;;;;;27.20;45.10;;;;;;5094965;28;19991;-37
2021/07/12 14:17:29;;;;;;;;;;;27.20;45.30;;;;;;5094817;28;20355;-36